sensor_id;sensor_type;location;lat;lon;timestamp;temperature;humidity
48007;DHT22;33771;48.180;11.400;2024-01-27T00:01:30;1.90;99.90
48007;DHT22;33771;48.180;11.400;2024-01-27T00:03:56;1.90;99.90
48007;DHT22;33771;48.180;11.400;2024-01-27T00:06:21;1.90;99.90
48007;DHT22;33771;48.180;11.400;2024-01-27T00:08:47;1.80;99.90
48007;DHT22;33771;48.180;11.400;2024-01-27T00:11:13;1.80;99.90
48007;DHT22;33771;48.180;11.400;2024-01-27T00:13:38;1.70;99.90
48007;DHT22;33771;48.180;11.400;2024-01-27T00:16:04;1.70;99.90
48007;DHT22;33771;48.180;11.400;2024-01-27T00:18:30;1.70;99.90
48007;DHT22;33771;48.180;11.400;2024-01-27T00:20:55;1.60;99.90
48007;DHT22;33771;48.180;11.400;2024-01-27T00:23:21;1.60;99.90
48007;DHT22;33771;48.180;11.400;2024-01-27T00:25:47;1.60;99.90
48007;DHT22;33771;48.180;11.400;2024-01-27T00:28:13;1.60;99.90
48007;DHT22;33771;48.180;11.400;2024-01-27T00:30:38;1.60;99.90
48007;DHT22;33771;48.180;11.400;2024-01-27T00:33:04;1.50;99.90
48007;DHT22;33771;48.180;11.400;2024-01-27T00:35:30;1.50;99.90
48007;DHT22;33771;48.180;11.400;2024-01-27T00:37:55;1.50;99.90
48007;DHT22;33771;48.180;11.400;2024-01-27T00:40:22;1.50;99.90
48007;DHT22;33771;48.180;11.400;2024-01-27T00:42:47;1.50;99.90
48007;DHT22;33771;48.180;11.400;2024-01-27T00:45:13;1.40;99.90
48007;DHT22;33771;48.180;11.400;2024-01-27T00:47:39;1.50;99.90
48007;DHT22;33771;48.180;11.400;2024-01-27T00:50:05;1.40;99.90
48007;DHT22;33771;48.180;11.400;2024-01-27T00:52:31;1.40;99.90
48007;DHT22;33771;48.180;11.400;2024-01-27T00:54:56;1.30;99.90
48007;DHT22;33771;48.180;11.400;2024-01-27T00:57:22;1.30;99.90
48007;DHT22;33771;48.180;11.400;2024-01-27T00:59:48;1.30;99.90
48007;DHT22;33771;48.180;11.400;2024-01-27T01:02:13;1.30;99.90
48007;DHT22;33771;48.180;11.400;2024-01-27T01:04:39;1.20;99.90
48007;DHT22;33771;48.180;11.400;2024-01-27T01:07:04;1.20;99.90
48007;DHT22;33771;48.180;11.400;2024-01-27T01:09:30;1.20;99.90
48007;DHT22;33771;48.180;11.400;2024-01-27T01:11:55;1.10;99.90
48007;DHT22;33771;48.180;11.400;2024-01-27T01:14:21;1.10;99.90
48007;DHT22;33771;48.180;11.400;2024-01-27T01:16:47;1.10;99.90
48007;DHT22;33771;48.180;11.400;2024-01-27T01:19:13;1.10;99.90
48007;DHT22;33771;48.180;11.400;2024-01-27T01:21:38;1.10;99.90
48007;DHT22;33771;48.180;11.400;2024-01-27T01:24:04;1.10;99.90
48007;DHT22;33771;48.180;11.400;2024-01-27T01:26:30;1.10;99.90
48007;DHT22;33771;48.180;11.400;2024-01-27T01:28:55;1.10;99.90
48007;DHT22;33771;48.180;11.400;2024-01-27T01:31:22;1.10;99.90
48007;DHT22;33771;48.180;11.400;2024-01-27T01:33:48;1.00;99.90
48007;DHT22;33771;48.180;11.400;2024-01-27T01:36:14;1.00;99.90
48007;DHT22;33771;48.180;11.400;2024-01-27T01:38:39;1.00;99.90
48007;DHT22;33771;48.180;11.400;2024-01-27T01:41:06;1.00;99.90
48007;DHT22;33771;48.180;11.400;2024-01-27T01:43:31;1.00;99.90
48007;DHT22;33771;48.180;11.400;2024-01-27T01:45:57;0.90;99.90
48007;DHT22;33771;48.180;11.400;2024-01-27T01:48:23;0.90;99.90
48007;DHT22;33771;48.180;11.400;2024-01-27T01:50:49;0.90;99.90
48007;DHT22;33771;48.180;11.400;2024-01-27T01:53:15;0.90;99.90
48007;DHT22;33771;48.180;11.400;2024-01-27T01:55:41;0.90;99.90
48007;DHT22;33771;48.180;11.400;2024-01-27T01:58:06;0.90;99.90
48007;DHT22;33771;48.180;11.400;2024-01-27T02:00:32;0.90;99.90
48007;DHT22;33771;48.180;11.400;2024-01-27T02:02:58;0.90;99.90
48007;DHT22;33771;48.180;11.400;2024-01-27T02:05:24;0.90;99.90
48007;DHT22;33771;48.180;11.400;2024-01-27T02:07:50;0.90;99.90
48007;DHT22;33771;48.180;11.400;2024-01-27T02:10:17;0.90;99.90
48007;DHT22;33771;48.180;11.400;2024-01-27T02:12:44;0.90;99.90
48007;DHT22;33771;48.180;11.400;2024-01-27T02:15:14;0.90;99.90
48007;DHT22;33771;48.180;11.400;2024-01-27T02:17:40;0.90;99.90
48007;DHT22;33771;48.180;11.400;2024-01-27T02:20:08;0.90;99.90
48007;DHT22;33771;48.180;11.400;2024-01-27T02:22:34;0.80;99.90
48007;DHT22;33771;48.180;11.400;2024-01-27T02:25:01;0.80;99.90
48007;DHT22;33771;48.180;11.400;2024-01-27T02:27:27;0.80;99.90
48007;DHT22;33771;48.180;11.400;2024-01-27T02:29:52;0.80;99.90
48007;DHT22;33771;48.180;11.400;2024-01-27T02:32:18;0.80;99.90
48007;DHT22;33771;48.180;11.400;2024-01-27T02:34:43;0.70;99.90
48007;DHT22;33771;48.180;11.400;2024-01-27T02:37:09;0.70;99.90
48007;DHT22;33771;48.180;11.400;2024-01-27T02:39:35;0.70;99.90
48007;DHT22;33771;48.180;11.400;2024-01-27T02:42:00;0.70;99.90
48007;DHT22;33771;48.180;11.400;2024-01-27T02:44:26;0.70;99.90
48007;DHT22;33771;48.180;11.400;2024-01-27T02:46:51;0.70;99.90
48007;DHT22;33771;48.180;11.400;2024-01-27T02:49:17;0.60;99.90
48007;DHT22;33771;48.180;11.400;2024-01-27T02:51:42;0.60;99.90
48007;DHT22;33771;48.180;11.400;2024-01-27T02:54:09;0.70;99.90
48007;DHT22;33771;48.180;11.400;2024-01-27T02:56:35;0.60;99.90
48007;DHT22;33771;48.180;11.400;2024-01-27T02:59:00;0.60;99.90
48007;DHT22;33771;48.180;11.400;2024-01-27T03:01:26;0.60;99.90
48007;DHT22;33771;48.180;11.400;2024-01-27T03:03:51;0.60;99.90
48007;DHT22;33771;48.180;11.400;2024-01-27T03:06:17;0.60;99.90
48007;DHT22;33771;48.180;11.400;2024-01-27T03:08:43;0.60;99.90
48007;DHT22;33771;48.180;11.400;2024-01-27T03:11:08;0.70;99.90
48007;DHT22;33771;48.180;11.400;2024-01-27T03:13:34;0.70;99.90
48007;DHT22;33771;48.180;11.400;2024-01-27T03:15:59;0.70;99.90
48007;DHT22;33771;48.180;11.400;2024-01-27T03:18:25;0.80;99.90
48007;DHT22;33771;48.180;11.400;2024-01-27T03:20:51;0.80;99.90
48007;DHT22;33771;48.180;11.400;2024-01-27T03:23:17;0.80;99.90
48007;DHT22;33771;48.180;11.400;2024-01-27T03:25:42;0.80;99.90
48007;DHT22;33771;48.180;11.400;2024-01-27T03:28:08;0.80;99.90
48007;DHT22;33771;48.180;11.400;2024-01-27T03:30:34;0.80;99.90
48007;DHT22;33771;48.180;11.400;2024-01-27T03:32:59;0.80;99.90
48007;DHT22;33771;48.180;11.400;2024-01-27T03:35:25;0.80;99.90
48007;DHT22;33771;48.180;11.400;2024-01-27T03:37:50;0.80;99.90
48007;DHT22;33771;48.180;11.400;2024-01-27T03:40:17;0.80;99.90
48007;DHT22;33771;48.180;11.400;2024-01-27T03:42:43;0.80;99.90
48007;DHT22;33771;48.180;11.400;2024-01-27T03:45:08;0.80;99.90
48007;DHT22;33771;48.180;11.400;2024-01-27T03:47:34;0.80;99.90
48007;DHT22;33771;48.180;11.400;2024-01-27T03:50:00;0.80;99.90
48007;DHT22;33771;48.180;11.400;2024-01-27T03:52:25;0.80;99.90
48007;DHT22;33771;48.180;11.400;2024-01-27T03:54:51;0.80;99.90
48007;DHT22;33771;48.180;11.400;2024-01-27T03:57:16;0.80;99.90
48007;DHT22;33771;48.180;11.400;2024-01-27T03:59:42;0.80;99.90
48007;DHT22;33771;48.180;11.400;2024-01-27T04:02:07;0.80;99.90
48007;DHT22;33771;48.180;11.400;2024-01-27T04:04:33;0.90;99.90
48007;DHT22;33771;48.180;11.400;2024-01-27T04:06:58;0.90;99.90
48007;DHT22;33771;48.180;11.400;2024-01-27T04:09:24;0.90;99.90
48007;DHT22;33771;48.180;11.400;2024-01-27T04:11:50;0.90;99.90
48007;DHT22;33771;48.180;11.400;2024-01-27T04:14:16;0.90;99.90
48007;DHT22;33771;48.180;11.400;2024-01-27T04:16:42;0.90;99.90
48007;DHT22;33771;48.180;11.400;2024-01-27T04:19:07;0.90;99.90
48007;DHT22;33771;48.180;11.400;2024-01-27T04:21:33;0.90;99.90
48007;DHT22;33771;48.180;11.400;2024-01-27T04:23:58;1.00;99.90
48007;DHT22;33771;48.180;11.400;2024-01-27T04:26:24;0.90;99.90
48007;DHT22;33771;48.180;11.400;2024-01-27T04:28:49;0.90;99.90
48007;DHT22;33771;48.180;11.400;2024-01-27T04:31:15;0.90;99.90
48007;DHT22;33771;48.180;11.400;2024-01-27T04:33:40;0.90;99.90
48007;DHT22;33771;48.180;11.400;2024-01-27T04:36:06;0.80;99.90
48007;DHT22;33771;48.180;11.400;2024-01-27T04:38:35;0.80;99.90
48007;DHT22;33771;48.180;11.400;2024-01-27T04:41:01;0.80;99.90
48007;DHT22;33771;48.180;11.400;2024-01-27T04:43:29;0.80;99.90
48007;DHT22;33771;48.180;11.400;2024-01-27T04:45:54;0.80;99.90
48007;DHT22;33771;48.180;11.400;2024-01-27T04:48:20;0.70;99.90
48007;DHT22;33771;48.180;11.400;2024-01-27T04:50:45;0.70;99.90
48007;DHT22;33771;48.180;11.400;2024-01-27T04:53:12;0.70;99.90
48007;DHT22;33771;48.180;11.400;2024-01-27T04:55:37;0.70;99.90
48007;DHT22;33771;48.180;11.400;2024-01-27T04:58:03;0.60;99.90
48007;DHT22;33771;48.180;11.400;2024-01-27T05:00:29;0.60;99.90
48007;DHT22;33771;48.180;11.400;2024-01-27T05:02:55;0.50;99.90
48007;DHT22;33771;48.180;11.400;2024-01-27T05:05:22;0.50;99.90
48007;DHT22;33771;48.180;11.400;2024-01-27T05:07:48;0.50;99.90
48007;DHT22;33771;48.180;11.400;2024-01-27T05:10:15;0.50;99.90
48007;DHT22;33771;48.180;11.400;2024-01-27T05:12:41;0.40;99.90
48007;DHT22;33771;48.180;11.400;2024-01-27T05:15:07;0.40;99.90
48007;DHT22;33771;48.180;11.400;2024-01-27T05:17:33;0.30;99.90
48007;DHT22;33771;48.180;11.400;2024-01-27T05:19:59;0.30;99.90
48007;DHT22;33771;48.180;11.400;2024-01-27T05:22:24;0.30;99.90
48007;DHT22;33771;48.180;11.400;2024-01-27T05:24:50;0.30;99.90
48007;DHT22;33771;48.180;11.400;2024-01-27T05:27:16;0.20;99.90
48007;DHT22;33771;48.180;11.400;2024-01-27T05:29:42;0.20;99.90
48007;DHT22;33771;48.180;11.400;2024-01-27T05:32:23;0.20;99.90
48007;DHT22;33771;48.180;11.400;2024-01-27T05:34:48;0.20;99.90
48007;DHT22;33771;48.180;11.400;2024-01-27T05:37:14;0.20;99.90
48007;DHT22;33771;48.180;11.400;2024-01-27T05:39:39;0.10;99.90
48007;DHT22;33771;48.180;11.400;2024-01-27T05:42:05;0.10;99.90
48007;DHT22;33771;48.180;11.400;2024-01-27T05:44:30;0.10;99.90
48007;DHT22;33771;48.180;11.400;2024-01-27T05:46:56;0.10;99.90
48007;DHT22;33771;48.180;11.400;2024-01-27T05:49:21;0.10;99.90
48007;DHT22;33771;48.180;11.400;2024-01-27T05:51:47;0.10;99.90
48007;DHT22;33771;48.180;11.400;2024-01-27T05:54:13;0.10;99.90
48007;DHT22;33771;48.180;11.400;2024-01-27T05:56:42;0.10;99.90
48007;DHT22;33771;48.180;11.400;2024-01-27T05:59:07;0.10;99.90
48007;DHT22;33771;48.180;11.400;2024-01-27T06:01:33;0.00;99.90
48007;DHT22;33771;48.180;11.400;2024-01-27T06:03:58;0.00;99.90
48007;DHT22;33771;48.180;11.400;2024-01-27T06:06:24;0.00;99.90
48007;DHT22;33771;48.180;11.400;2024-01-27T06:08:49;0.00;99.90
48007;DHT22;33771;48.180;11.400;2024-01-27T06:11:25;0.00;99.90
48007;DHT22;33771;48.180;11.400;2024-01-27T06:13:51;0.00;99.90
48007;DHT22;33771;48.180;11.400;2024-01-27T06:16:20;0.00;99.90
48007;DHT22;33771;48.180;11.400;2024-01-27T06:18:46;-0.10;99.90
48007;DHT22;33771;48.180;11.400;2024-01-27T06:21:11;-0.10;99.90
48007;DHT22;33771;48.180;11.400;2024-01-27T06:23:37;-0.10;99.90
48007;DHT22;33771;48.180;11.400;2024-01-27T06:26:09;-0.10;99.90
48007;DHT22;33771;48.180;11.400;2024-01-27T06:28:35;-0.10;99.90
48007;DHT22;33771;48.180;11.400;2024-01-27T06:31:02;-0.20;99.90
48007;DHT22;33771;48.180;11.400;2024-01-27T06:33:28;-0.20;99.90
48007;DHT22;33771;48.180;11.400;2024-01-27T06:35:53;-0.20;99.90
48007;DHT22;33771;48.180;11.400;2024-01-27T06:38:19;-0.20;99.90
48007;DHT22;33771;48.180;11.400;2024-01-27T06:40:45;-0.30;99.90
48007;DHT22;33771;48.180;11.400;2024-01-27T06:43:13;-0.30;99.90
48007;DHT22;33771;48.180;11.400;2024-01-27T06:45:39;-0.20;99.90
48007;DHT22;33771;48.180;11.400;2024-01-27T06:48:05;-0.30;99.90
48007;DHT22;33771;48.180;11.400;2024-01-27T06:50:32;-0.30;99.90
48007;DHT22;33771;48.180;11.400;2024-01-27T06:52:57;-0.30;99.90
48007;DHT22;33771;48.180;11.400;2024-01-27T06:55:23;-0.30;99.90
48007;DHT22;33771;48.180;11.400;2024-01-27T06:57:48;-0.30;99.90
48007;DHT22;33771;48.180;11.400;2024-01-27T07:00:14;-0.40;99.90
48007;DHT22;33771;48.180;11.400;2024-01-27T07:02:40;-0.30;99.90
48007;DHT22;33771;48.180;11.400;2024-01-27T07:05:09;-0.40;99.90
48007;DHT22;33771;48.180;11.400;2024-01-27T07:07:35;-0.40;99.90
48007;DHT22;33771;48.180;11.400;2024-01-27T07:10:01;-0.40;99.90
48007;DHT22;33771;48.180;11.400;2024-01-27T07:12:27;-0.40;99.90
48007;DHT22;33771;48.180;11.400;2024-01-27T07:14:53;-0.40;99.90
48007;DHT22;33771;48.180;11.400;2024-01-27T07:17:20;-0.40;99.90
48007;DHT22;33771;48.180;11.400;2024-01-27T07:19:46;-0.40;99.90
48007;DHT22;33771;48.180;11.400;2024-01-27T07:22:11;-0.40;99.90
48007;DHT22;33771;48.180;11.400;2024-01-27T07:24:37;-0.40;99.90
48007;DHT22;33771;48.180;11.400;2024-01-27T07:27:03;-0.40;99.90
48007;DHT22;33771;48.180;11.400;2024-01-27T07:29:29;-0.40;99.90
48007;DHT22;33771;48.180;11.400;2024-01-27T07:31:55;-0.40;99.90
48007;DHT22;33771;48.180;11.400;2024-01-27T07:34:20;-0.40;99.90
48007;DHT22;33771;48.180;11.400;2024-01-27T07:36:46;-0.30;99.90
48007;DHT22;33771;48.180;11.400;2024-01-27T07:39:13;-0.30;99.90
48007;DHT22;33771;48.180;11.400;2024-01-27T07:41:39;-0.30;99.90
48007;DHT22;33771;48.180;11.400;2024-01-27T07:44:11;-0.30;99.90
48007;DHT22;33771;48.180;11.400;2024-01-27T07:46:41;-0.20;99.90
48007;DHT22;33771;48.180;11.400;2024-01-27T07:49:07;-0.20;99.90
48007;DHT22;33771;48.180;11.400;2024-01-27T07:51:34;-0.20;99.90
48007;DHT22;33771;48.180;11.400;2024-01-27T07:54:00;-0.20;99.90
48007;DHT22;33771;48.180;11.400;2024-01-27T07:56:26;-0.10;99.90
48007;DHT22;33771;48.180;11.400;2024-01-27T07:58:52;-0.10;99.90
48007;DHT22;33771;48.180;11.400;2024-01-27T08:01:18;0.00;99.90
48007;DHT22;33771;48.180;11.400;2024-01-27T08:03:44;0.00;99.90
48007;DHT22;33771;48.180;11.400;2024-01-27T08:06:27;0.10;99.90
48007;DHT22;33771;48.180;11.400;2024-01-27T08:08:53;0.20;99.90
48007;DHT22;33771;48.180;11.400;2024-01-27T08:11:18;0.20;99.90
48007;DHT22;33771;48.180;11.400;2024-01-27T08:13:44;0.30;99.90
48007;DHT22;33771;48.180;11.400;2024-01-27T08:16:10;0.40;99.90
48007;DHT22;33771;48.180;11.400;2024-01-27T08:18:41;0.40;99.90
48007;DHT22;33771;48.180;11.400;2024-01-27T08:21:09;0.50;99.90
48007;DHT22;33771;48.180;11.400;2024-01-27T08:23:35;0.60;99.90
48007;DHT22;33771;48.180;11.400;2024-01-27T08:26:00;0.70;99.90
48007;DHT22;33771;48.180;11.400;2024-01-27T08:28:26;0.70;99.90
48007;DHT22;33771;48.180;11.400;2024-01-27T08:30:51;0.80;99.90
48007;DHT22;33771;48.180;11.400;2024-01-27T08:33:17;0.90;99.90
48007;DHT22;33771;48.180;11.400;2024-01-27T08:35:43;1.00;99.90
48007;DHT22;33771;48.180;11.400;2024-01-27T08:38:11;1.10;99.90
48007;DHT22;33771;48.180;11.400;2024-01-27T08:40:36;1.30;99.90
48007;DHT22;33771;48.180;11.400;2024-01-27T08:43:02;1.40;99.90
48007;DHT22;33771;48.180;11.400;2024-01-27T08:45:28;1.60;99.90
48007;DHT22;33771;48.180;11.400;2024-01-27T08:47:53;1.80;99.90
48007;DHT22;33771;48.180;11.400;2024-01-27T08:50:19;1.90;99.90
48007;DHT22;33771;48.180;11.400;2024-01-27T08:52:44;2.00;99.90
48007;DHT22;33771;48.180;11.400;2024-01-27T08:55:11;2.10;99.90
48007;DHT22;33771;48.180;11.400;2024-01-27T08:57:37;2.20;99.90
48007;DHT22;33771;48.180;11.400;2024-01-27T09:00:03;2.40;99.90
48007;DHT22;33771;48.180;11.400;2024-01-27T09:02:29;2.50;99.90
48007;DHT22;33771;48.180;11.400;2024-01-27T09:04:55;2.50;99.90
48007;DHT22;33771;48.180;11.400;2024-01-27T09:07:21;2.60;99.90
48007;DHT22;33771;48.180;11.400;2024-01-27T09:09:47;2.60;99.90
48007;DHT22;33771;48.180;11.400;2024-01-27T09:12:12;2.60;99.90
48007;DHT22;33771;48.180;11.400;2024-01-27T09:14:38;2.70;99.90
48007;DHT22;33771;48.180;11.400;2024-01-27T09:17:04;2.70;99.90
48007;DHT22;33771;48.180;11.400;2024-01-27T09:19:29;2.80;99.90
48007;DHT22;33771;48.180;11.400;2024-01-27T09:21:55;2.80;99.90
48007;DHT22;33771;48.180;11.400;2024-01-27T09:24:20;2.90;99.90
48007;DHT22;33771;48.180;11.400;2024-01-27T09:26:46;2.90;99.90
48007;DHT22;33771;48.180;11.400;2024-01-27T09:29:12;3.00;99.90
48007;DHT22;33771;48.180;11.400;2024-01-27T09:31:37;3.10;99.90
48007;DHT22;33771;48.180;11.400;2024-01-27T09:34:03;3.10;99.90
48007;DHT22;33771;48.180;11.400;2024-01-27T09:36:29;3.10;99.90
48007;DHT22;33771;48.180;11.400;2024-01-27T09:38:54;3.10;99.90
48007;DHT22;33771;48.180;11.400;2024-01-27T09:41:20;3.10;99.90
48007;DHT22;33771;48.180;11.400;2024-01-27T09:43:46;3.20;99.90
48007;DHT22;33771;48.180;11.400;2024-01-27T09:46:14;3.30;99.90
48007;DHT22;33771;48.180;11.400;2024-01-27T09:48:40;3.30;99.90
48007;DHT22;33771;48.180;11.400;2024-01-27T09:51:07;3.40;99.90
48007;DHT22;33771;48.180;11.400;2024-01-27T09:53:33;3.40;99.90
48007;DHT22;33771;48.180;11.400;2024-01-27T09:55:59;3.40;99.90
48007;DHT22;33771;48.180;11.400;2024-01-27T09:58:28;3.50;99.90
48007;DHT22;33771;48.180;11.400;2024-01-27T10:00:56;3.50;99.90
48007;DHT22;33771;48.180;11.400;2024-01-27T10:03:24;3.50;99.90
48007;DHT22;33771;48.180;11.400;2024-01-27T10:05:51;3.60;99.90
48007;DHT22;33771;48.180;11.400;2024-01-27T10:08:18;3.60;99.90
48007;DHT22;33771;48.180;11.400;2024-01-27T10:10:44;3.70;99.90
48007;DHT22;33771;48.180;11.400;2024-01-27T10:13:10;3.70;99.90
48007;DHT22;33771;48.180;11.400;2024-01-27T10:15:37;3.80;99.90
48007;DHT22;33771;48.180;11.400;2024-01-27T10:18:06;3.80;99.90
48007;DHT22;33771;48.180;11.400;2024-01-27T10:20:32;3.90;99.90
48007;DHT22;33771;48.180;11.400;2024-01-27T10:23:09;3.90;99.90
48007;DHT22;33771;48.180;11.400;2024-01-27T10:25:40;3.90;99.90
48007;DHT22;33771;48.180;11.400;2024-01-27T10:28:07;4.00;99.90
48007;DHT22;33771;48.180;11.400;2024-01-27T10:30:34;4.20;99.90
48007;DHT22;33771;48.180;11.400;2024-01-27T10:33:00;4.40;99.90
48007;DHT22;33771;48.180;11.400;2024-01-27T10:35:25;4.50;99.90
48007;DHT22;33771;48.180;11.400;2024-01-27T10:37:52;4.70;99.90
48007;DHT22;33771;48.180;11.400;2024-01-27T10:40:18;4.90;99.90
48007;DHT22;33771;48.180;11.400;2024-01-27T10:42:44;5.00;99.90
48007;DHT22;33771;48.180;11.400;2024-01-27T10:45:11;5.10;99.90
48007;DHT22;33771;48.180;11.400;2024-01-27T10:47:38;5.00;99.90
48007;DHT22;33771;48.180;11.400;2024-01-27T10:50:08;5.00;99.90
48007;DHT22;33771;48.180;11.400;2024-01-27T10:52:38;5.00;99.90
48007;DHT22;33771;48.180;11.400;2024-01-27T10:55:05;5.00;99.90
48007;DHT22;33771;48.180;11.400;2024-01-27T10:57:36;5.00;99.90
48007;DHT22;33771;48.180;11.400;2024-01-27T11:00:03;4.90;99.90
48007;DHT22;33771;48.180;11.400;2024-01-27T11:02:33;4.90;99.90
48007;DHT22;33771;48.180;11.400;2024-01-27T11:05:02;4.80;99.90
48007;DHT22;33771;48.180;11.400;2024-01-27T11:07:33;4.80;99.90
48007;DHT22;33771;48.180;11.400;2024-01-27T11:10:00;4.80;99.90
48007;DHT22;33771;48.180;11.400;2024-01-27T11:12:26;4.90;99.90
48007;DHT22;33771;48.180;11.400;2024-01-27T11:14:53;4.90;99.90
48007;DHT22;33771;48.180;11.400;2024-01-27T11:17:19;5.00;99.90
48007;DHT22;33771;48.180;11.400;2024-01-27T11:19:45;5.00;99.90
48007;DHT22;33771;48.180;11.400;2024-01-27T11:22:29;5.00;99.90
48007;DHT22;33771;48.180;11.400;2024-01-27T11:25:15;5.00;99.90
48007;DHT22;33771;48.180;11.400;2024-01-27T11:27:43;5.00;99.90
48007;DHT22;33771;48.180;11.400;2024-01-27T11:30:31;5.00;99.90
48007;DHT22;33771;48.180;11.400;2024-01-27T11:33:04;5.10;99.90
48007;DHT22;33771;48.180;11.400;2024-01-27T11:35:30;5.20;99.90
48007;DHT22;33771;48.180;11.400;2024-01-27T11:37:55;5.20;99.90
48007;DHT22;33771;48.180;11.400;2024-01-27T11:40:21;5.20;99.90
48007;DHT22;33771;48.180;11.400;2024-01-27T11:43:01;5.30;99.90
48007;DHT22;33771;48.180;11.400;2024-01-27T11:45:27;5.30;99.90
48007;DHT22;33771;48.180;11.400;2024-01-27T11:47:55;5.30;99.90
48007;DHT22;33771;48.180;11.400;2024-01-27T11:50:21;5.30;99.90
48007;DHT22;33771;48.180;11.400;2024-01-27T11:52:46;5.30;99.90
48007;DHT22;33771;48.180;11.400;2024-01-27T11:55:12;5.40;99.90
48007;DHT22;33771;48.180;11.400;2024-01-27T11:57:41;5.40;99.90
48007;DHT22;33771;48.180;11.400;2024-01-27T12:00:07;5.40;99.90
48007;DHT22;33771;48.180;11.400;2024-01-27T12:02:35;5.50;99.90
48007;DHT22;33771;48.180;11.400;2024-01-27T12:05:00;5.50;99.90
48007;DHT22;33771;48.180;11.400;2024-01-27T12:07:26;5.60;99.90
48007;DHT22;33771;48.180;11.400;2024-01-27T12:09:52;5.60;99.90
48007;DHT22;33771;48.180;11.400;2024-01-27T12:12:17;5.70;99.90
48007;DHT22;33771;48.180;11.400;2024-01-27T12:14:51;5.80;99.90
48007;DHT22;33771;48.180;11.400;2024-01-27T12:17:17;5.80;99.90
48007;DHT22;33771;48.180;11.400;2024-01-27T12:19:47;6.00;99.90
48007;DHT22;33771;48.180;11.400;2024-01-27T12:22:26;6.00;99.90
48007;DHT22;33771;48.180;11.400;2024-01-27T12:24:53;6.10;99.90
48007;DHT22;33771;48.180;11.400;2024-01-27T12:27:19;6.20;99.90
48007;DHT22;33771;48.180;11.400;2024-01-27T12:29:47;6.30;99.90
48007;DHT22;33771;48.180;11.400;2024-01-27T12:32:12;6.40;99.90
48007;DHT22;33771;48.180;11.400;2024-01-27T12:34:42;6.50;99.90
48007;DHT22;33771;48.180;11.400;2024-01-27T12:37:08;6.70;99.90
48007;DHT22;33771;48.180;11.400;2024-01-27T12:39:36;6.70;99.90
48007;DHT22;33771;48.180;11.400;2024-01-27T12:42:01;6.70;99.90
48007;DHT22;33771;48.180;11.400;2024-01-27T12:44:27;6.70;99.90
48007;DHT22;33771;48.180;11.400;2024-01-27T12:46:52;6.80;99.90
48007;DHT22;33771;48.180;11.400;2024-01-27T12:49:18;6.90;99.90
48007;DHT22;33771;48.180;11.400;2024-01-27T12:51:44;7.00;99.90
48007;DHT22;33771;48.180;11.400;2024-01-27T12:54:11;7.00;99.90
48007;DHT22;33771;48.180;11.400;2024-01-27T12:56:36;7.00;99.90
48007;DHT22;33771;48.180;11.400;2024-01-27T12:59:02;6.90;99.90
48007;DHT22;33771;48.180;11.400;2024-01-27T13:01:27;7.00;99.90
48007;DHT22;33771;48.180;11.400;2024-01-27T13:03:53;7.00;99.90
48007;DHT22;33771;48.180;11.400;2024-01-27T13:06:19;7.10;99.90
48007;DHT22;33771;48.180;11.400;2024-01-27T13:08:45;7.20;99.90
48007;DHT22;33771;48.180;11.400;2024-01-27T13:11:11;7.20;99.90
48007;DHT22;33771;48.180;11.400;2024-01-27T13:13:39;7.20;99.90
48007;DHT22;33771;48.180;11.400;2024-01-27T13:16:05;7.10;99.90
48007;DHT22;33771;48.180;11.400;2024-01-27T13:18:31;7.10;99.90
48007;DHT22;33771;48.180;11.400;2024-01-27T13:20:57;7.20;99.90
48007;DHT22;33771;48.180;11.400;2024-01-27T13:23:22;7.10;99.90
48007;DHT22;33771;48.180;11.400;2024-01-27T13:25:48;7.00;99.90
48007;DHT22;33771;48.180;11.400;2024-01-27T13:28:13;7.00;99.90
48007;DHT22;33771;48.180;11.400;2024-01-27T13:30:39;7.00;99.90
48007;DHT22;33771;48.180;11.400;2024-01-27T13:33:05;6.90;99.90
48007;DHT22;33771;48.180;11.400;2024-01-27T13:35:30;6.80;99.90
48007;DHT22;33771;48.180;11.400;2024-01-27T13:37:56;6.70;99.90
48007;DHT22;33771;48.180;11.400;2024-01-27T13:40:21;6.80;99.90
48007;DHT22;33771;48.180;11.400;2024-01-27T13:42:47;6.80;99.90
48007;DHT22;33771;48.180;11.400;2024-01-27T13:45:13;6.70;99.90
48007;DHT22;33771;48.180;11.400;2024-01-27T13:47:38;6.60;99.90
48007;DHT22;33771;48.180;11.400;2024-01-27T13:50:05;6.60;99.90
48007;DHT22;33771;48.180;11.400;2024-01-27T13:52:31;6.50;99.90
48007;DHT22;33771;48.180;11.400;2024-01-27T13:54:57;6.40;99.90
48007;DHT22;33771;48.180;11.400;2024-01-27T13:57:23;6.40;99.90
48007;DHT22;33771;48.180;11.400;2024-01-27T13:59:48;6.40;99.90
48007;DHT22;33771;48.180;11.400;2024-01-27T14:02:14;6.40;99.90
48007;DHT22;33771;48.180;11.400;2024-01-27T14:04:40;6.30;99.90
48007;DHT22;33771;48.180;11.400;2024-01-27T14:07:05;6.30;99.90
48007;DHT22;33771;48.180;11.400;2024-01-27T14:09:35;6.30;99.90
48007;DHT22;33771;48.180;11.400;2024-01-27T14:12:01;6.30;99.90
48007;DHT22;33771;48.180;11.400;2024-01-27T14:14:27;6.30;99.90
48007;DHT22;33771;48.180;11.400;2024-01-27T14:16:52;6.30;99.90
48007;DHT22;33771;48.180;11.400;2024-01-27T14:19:18;6.20;99.90
48007;DHT22;33771;48.180;11.400;2024-01-27T14:21:43;6.20;99.90
48007;DHT22;33771;48.180;11.400;2024-01-27T14:24:09;6.20;99.90
48007;DHT22;33771;48.180;11.400;2024-01-27T14:26:35;6.10;99.90
48007;DHT22;33771;48.180;11.400;2024-01-27T14:29:01;6.20;99.90
48007;DHT22;33771;48.180;11.400;2024-01-27T14:31:26;6.20;99.90
48007;DHT22;33771;48.180;11.400;2024-01-27T14:33:52;6.20;99.90
48007;DHT22;33771;48.180;11.400;2024-01-27T14:36:19;6.10;99.90
48007;DHT22;33771;48.180;11.400;2024-01-27T14:38:45;6.10;99.90
48007;DHT22;33771;48.180;11.400;2024-01-27T14:41:11;6.10;99.90
48007;DHT22;33771;48.180;11.400;2024-01-27T14:43:37;6.00;99.90
48007;DHT22;33771;48.180;11.400;2024-01-27T14:46:04;6.00;99.90
48007;DHT22;33771;48.180;11.400;2024-01-27T14:48:29;6.00;99.90
48007;DHT22;33771;48.180;11.400;2024-01-27T14:50:55;6.00;99.90
48007;DHT22;33771;48.180;11.400;2024-01-27T14:53:25;5.90;99.90
48007;DHT22;33771;48.180;11.400;2024-01-27T14:55:51;5.80;99.90
48007;DHT22;33771;48.180;11.400;2024-01-27T14:58:16;5.80;99.90
48007;DHT22;33771;48.180;11.400;2024-01-27T15:00:42;5.80;99.90
48007;DHT22;33771;48.180;11.400;2024-01-27T15:03:08;5.70;99.90
48007;DHT22;33771;48.180;11.400;2024-01-27T15:05:34;5.60;99.90
48007;DHT22;33771;48.180;11.400;2024-01-27T15:08:04;5.60;99.90
48007;DHT22;33771;48.180;11.400;2024-01-27T15:10:30;5.60;99.90
48007;DHT22;33771;48.180;11.400;2024-01-27T15:12:56;5.50;99.90
48007;DHT22;33771;48.180;11.400;2024-01-27T15:15:23;5.50;99.90
48007;DHT22;33771;48.180;11.400;2024-01-27T15:17:49;5.40;99.90
48007;DHT22;33771;48.180;11.400;2024-01-27T15:20:15;5.30;99.90
48007;DHT22;33771;48.180;11.400;2024-01-27T15:22:40;5.30;99.90
48007;DHT22;33771;48.180;11.400;2024-01-27T15:25:07;5.30;99.90